createdAt,value
2018-08-20T00:00:03.442Z,21.90
2018-08-20T00:05:08.511Z,21.70
2018-08-20T00:10:13.244Z,21.60
2018-08-20T00:15:17.937Z,21.60
2018-08-20T00:20:23.408Z,21.50
2018-08-20T00:25:28.365Z,21.40
2018-08-20T00:30:33.093Z,21.30
2018-08-20T00:35:39.501Z,21.20
2018-08-20T00:40:44.569Z,21.00
2018-08-20T00:45:49.457Z,21.00
2018-08-20T00:50:54.188Z,21.00
2018-08-20T00:55:59.030Z,20.90
2018-08-20T01:01:04.652Z,20.90
2018-08-20T01:06:09.940Z,20.80
2018-08-20T01:11:15.767Z,20.80
2018-08-20T01:16:20.743Z,20.80
2018-08-20T01:21:26.199Z,20.70
2018-08-20T01:26:31.022Z,20.70
2018-08-20T01:31:35.683Z,20.60
2018-08-20T01:36:40.486Z,20.50
2018-08-20T01:41:45.248Z,20.40
2018-08-20T01:46:50.631Z,20.20
2018-08-20T01:51:55.554Z,20.00
2018-08-20T01:57:00.405Z,20.10
2018-08-20T02:02:05.222Z,20.20
2018-08-20T02:07:10.931Z,20.10
2018-08-20T02:12:15.696Z,20.00
2018-08-20T02:17:20.961Z,19.80
2018-08-20T02:22:26.296Z,19.40
2018-08-20T02:27:31.058Z,19.30
2018-08-20T02:32:36.248Z,19.20
2018-08-20T02:37:45.127Z,19.20
2018-08-20T02:42:51.233Z,19.10
2018-08-20T02:47:55.862Z,19.00
2018-08-20T02:53:00.532Z,19.00
2018-08-20T02:58:05.278Z,18.90
2018-08-20T03:03:09.969Z,18.80
2018-08-20T03:08:15.595Z,18.70
2018-08-20T03:13:20.525Z,18.80
2018-08-20T03:18:26.107Z,18.80
2018-08-20T03:23:30.839Z,18.80
2018-08-20T03:28:35.782Z,18.80
2018-08-20T03:33:40.799Z,18.80
2018-08-20T03:38:45.651Z,18.90
2018-08-20T03:43:50.553Z,18.90
2018-08-20T03:48:55.939Z,18.80
2018-08-20T03:54:00.669Z,18.80
2018-08-20T03:59:06.026Z,18.70
2018-08-20T04:04:10.678Z,18.40
2018-08-20T04:09:15.521Z,18.20
2018-08-20T04:14:20.224Z,18.20
2018-08-20T04:19:25.083Z,18.20
2018-08-20T04:24:29.848Z,18.20
2018-08-20T04:29:35.452Z,18.10
2018-08-20T04:34:41.366Z,18.10
2018-08-20T04:39:46.182Z,18.10
2018-08-20T04:44:51.024Z,18.00
2018-08-20T04:49:58.275Z,18.00
2018-08-20T04:55:03.230Z,18.00
2018-08-20T05:00:09.973Z,18.00
2018-08-20T05:05:15.836Z,18.00
2018-08-20T05:10:21.195Z,18.00
2018-08-20T05:15:26.290Z,18.10
2018-08-20T05:20:31.681Z,18.20
2018-08-20T05:25:36.395Z,18.30
2018-08-20T05:30:42.120Z,18.50
2018-08-20T05:35:47.342Z,18.70
2018-08-20T05:40:52.447Z,18.80
2018-08-20T05:45:57.157Z,18.80
2018-08-20T05:51:02.001Z,18.60
2018-08-20T05:56:06.727Z,18.80
2018-08-20T06:01:11.812Z,19.00
2018-08-20T06:06:16.502Z,19.10
2018-08-20T06:11:21.246Z,19.40
2018-08-20T06:16:26.148Z,19.60
2018-08-20T06:21:31.281Z,19.80
2018-08-20T06:26:36.770Z,20.20
2018-08-20T06:31:41.826Z,20.70
2018-08-20T06:36:46.712Z,21.20
2018-08-20T06:41:51.934Z,21.50
2018-08-20T06:46:56.766Z,21.70
2018-08-20T06:52:01.674Z,21.80
2018-08-20T06:57:06.633Z,22.00
2018-08-20T07:02:11.573Z,22.10
2018-08-20T07:07:16.443Z,22.40
2018-08-20T07:12:21.206Z,22.50
2018-08-20T07:17:26.722Z,22.60
2018-08-20T07:22:31.327Z,22.90
2018-08-20T07:27:37.839Z,22.70
2018-08-20T07:32:42.551Z,22.70
2018-08-20T07:37:47.533Z,22.90
2018-08-20T07:42:52.868Z,23.10
2018-08-20T07:47:57.999Z,23.40
2018-08-20T07:53:02.971Z,23.70
2018-08-20T07:58:08.088Z,23.80
2018-08-20T08:03:13.135Z,24.10
2018-08-20T08:08:18.319Z,24.00
2018-08-20T08:13:23.269Z,24.40
2018-08-20T08:18:28.046Z,24.40
2018-08-20T08:23:33.002Z,24.30
2018-08-20T08:28:38.330Z,24.50
2018-08-20T08:33:44.174Z,24.80
2018-08-20T08:38:49.341Z,24.50
2018-08-20T08:43:54.191Z,24.80
2018-08-20T08:48:59.054Z,25.10
2018-08-20T08:54:04.277Z,25.00
2018-08-20T08:59:09.336Z,25.00
2018-08-20T09:04:14.150Z,25.30
2018-08-20T09:09:19.093Z,25.20
2018-08-20T09:14:24.261Z,25.20
2018-08-20T09:19:29.469Z,24.90
2018-08-20T09:24:35.251Z,24.90
2018-08-20T09:29:41.402Z,25.20
2018-08-20T09:34:47.220Z,25.10
2018-08-20T09:39:52.470Z,25.20
2018-08-20T09:44:57.323Z,25.10
2018-08-20T09:50:02.149Z,24.90
2018-08-20T09:55:07.781Z,25.40
2018-08-20T10:00:23.372Z,25.60
2018-08-20T10:05:29.327Z,25.90
2018-08-20T10:10:34.315Z,26.10
2018-08-20T10:15:39.209Z,26.30
2018-08-20T10:20:44.447Z,26.70
2018-08-20T10:25:49.299Z,26.50
2018-08-20T10:30:54.346Z,26.60
2018-08-20T10:35:59.373Z,26.70
2018-08-20T10:41:04.260Z,26.90
2018-08-20T10:46:14.118Z,27.50
2018-08-20T10:51:18.904Z,27.70
2018-08-20T10:56:24.156Z,27.60
2018-08-20T11:01:28.980Z,27.60
2018-08-20T11:06:33.701Z,27.80
2018-08-20T11:11:38.736Z,27.70
2018-08-20T11:16:44.462Z,27.80
2018-08-20T11:21:50.039Z,28.40
2018-08-20T11:26:54.960Z,28.90
2018-08-20T11:31:59.660Z,29.00
2018-08-20T11:37:04.712Z,29.90
2018-08-20T11:42:09.699Z,30.70
2018-08-20T11:47:14.507Z,30.90
2018-08-20T11:52:19.294Z,31.30
2018-08-20T11:57:24.101Z,31.50
2018-08-20T12:02:29.097Z,32.60
2018-08-20T12:07:33.942Z,33.70
2018-08-20T12:12:39.381Z,33.90
2018-08-20T12:17:44.213Z,34.40
2018-08-20T12:22:49.359Z,35.00
2018-08-20T12:27:54.657Z,35.10
2018-08-20T12:32:59.610Z,35.30
2018-08-20T12:38:04.522Z,34.60
2018-08-20T12:43:09.391Z,35.00
2018-08-20T12:48:14.169Z,35.50
2018-08-20T12:53:19.150Z,35.80
2018-08-20T12:58:23.775Z,35.10
2018-08-20T13:03:28.610Z,34.90
2018-08-20T13:08:33.864Z,34.90
2018-08-20T13:13:38.615Z,33.60
2018-08-20T13:18:44.340Z,34.00
2018-08-20T13:23:50.156Z,34.20
2018-08-20T13:28:57.605Z,33.10
2018-08-20T13:34:13.021Z,32.40
2018-08-20T13:39:23.626Z,33.40
2018-08-20T13:44:32.923Z,33.70
2018-08-20T13:49:43.259Z,34.30
2018-08-20T13:54:48.236Z,34.00
2018-08-20T13:59:53.784Z,33.90
2018-08-20T14:05:02.748Z,34.20
2018-08-20T14:10:10.638Z,34.70
2018-08-20T14:15:15.817Z,34.40
2018-08-20T14:20:20.618Z,34.90
2018-08-20T14:25:26.162Z,35.40
2018-08-20T14:30:31.045Z,36.10
2018-08-20T14:35:36.506Z,35.50
2018-08-20T14:40:42.020Z,35.80
2018-08-20T14:45:51.870Z,36.90
2018-08-20T14:50:57.528Z,36.50
2018-08-20T14:56:02.347Z,34.70
2018-08-20T15:01:07.335Z,35.60
2018-08-20T15:06:12.282Z,36.00
2018-08-20T15:11:17.205Z,35.40
2018-08-20T15:16:22.348Z,35.10
2018-08-20T15:21:28.070Z,35.60
2018-08-20T15:26:32.940Z,36.30
2018-08-20T15:31:37.609Z,35.90
2018-08-20T15:36:42.600Z,36.00
2018-08-20T15:59:54.789Z,35.80
2018-08-20T16:05:00.170Z,35.90
2018-08-20T16:10:08.599Z,35.60
2018-08-20T16:15:13.628Z,35.60
2018-08-20T16:20:18.443Z,36.60
2018-08-20T16:25:26.440Z,37.80
2018-08-20T16:30:31.707Z,37.30
2018-08-20T16:35:36.566Z,35.60
2018-08-20T16:40:45.138Z,34.30
2018-08-20T16:45:51.154Z,32.00
2018-08-20T16:50:56.041Z,32.10
2018-08-20T16:56:00.878Z,33.90
2018-08-20T17:01:06.915Z,35.20
2018-08-20T17:06:12.128Z,34.90
2018-08-20T17:11:18.821Z,35.10
2018-08-20T17:16:23.812Z,34.90
2018-08-20T17:21:28.875Z,33.00
2018-08-20T17:26:33.869Z,30.80
2018-08-20T17:31:38.896Z,29.70
2018-08-20T17:36:43.888Z,29.10
2018-08-20T17:41:48.637Z,28.70
2018-08-20T17:46:55.085Z,28.40
2018-08-20T17:52:00.110Z,28.20
2018-08-20T17:57:05.154Z,28.10
2018-08-20T18:02:19.449Z,27.80
2018-08-20T18:07:24.737Z,27.60
2018-08-20T18:12:30.102Z,27.30
2018-08-20T18:17:34.915Z,26.90
2018-08-20T18:22:39.737Z,26.60
2018-08-20T18:27:45.331Z,26.30
2018-08-20T18:32:51.018Z,25.90
2018-08-20T18:37:55.844Z,25.70
2018-08-20T18:43:00.906Z,25.70
2018-08-20T18:48:05.991Z,25.40
2018-08-20T18:53:10.848Z,25.20
2018-08-20T18:58:15.959Z,25.10
2018-08-20T19:03:20.880Z,24.90
2018-08-20T19:08:27.048Z,24.70
2018-08-20T19:13:33.191Z,24.50
2018-08-20T19:18:38.475Z,24.30
2018-08-20T19:23:43.861Z,24.20
2018-08-20T19:28:48.985Z,24.10
2018-08-20T19:33:54.130Z,24.00
2018-08-20T19:38:59.143Z,24.20
2018-08-20T19:44:04.318Z,24.70
2018-08-20T19:49:15.981Z,24.70
2018-08-20T19:54:21.959Z,24.60
2018-08-20T19:59:32.458Z,24.60
2018-08-20T20:04:37.562Z,24.70
2018-08-20T20:09:46.723Z,24.60
2018-08-20T20:14:51.532Z,24.60
2018-08-20T20:19:56.386Z,24.50
2018-08-20T20:25:02.611Z,24.50
2018-08-20T20:30:08.522Z,24.40
2018-08-20T20:35:13.378Z,24.40
2018-08-20T20:40:18.281Z,24.40
2018-08-20T20:45:28.141Z,24.40
2018-08-20T20:50:33.359Z,24.30
2018-08-20T20:55:39.619Z,24.10
2018-08-20T21:00:45.571Z,24.00
2018-08-20T21:05:51.502Z,23.80
2018-08-20T21:10:58.048Z,23.70
2018-08-20T21:16:08.443Z,23.60
2018-08-20T21:21:15.426Z,23.50
2018-08-20T21:26:21.641Z,23.30
2018-08-20T21:31:27.985Z,23.20
2018-08-20T21:36:33.124Z,23.00
2018-08-20T21:41:38.586Z,22.90
2018-08-20T21:46:43.826Z,22.80
2018-08-20T21:51:57.149Z,22.70
2018-08-20T21:57:03.331Z,22.70
2018-08-20T22:02:08.328Z,22.60
2018-08-20T22:07:13.159Z,22.60
2018-08-20T22:12:18.446Z,22.70
2018-08-20T22:17:29.967Z,22.70
2018-08-20T22:22:34.641Z,22.60
2018-08-20T22:27:44.507Z,22.40
2018-08-20T22:32:50.552Z,22.30
2018-08-20T22:37:55.449Z,22.30
2018-08-20T22:43:01.503Z,22.00
2018-08-20T22:48:06.546Z,21.90
2018-08-20T22:53:11.814Z,21.70
2018-08-20T22:58:16.713Z,21.60
2018-08-20T23:03:21.423Z,21.60
2018-08-20T23:08:27.497Z,21.40
2018-08-20T23:13:32.363Z,21.30
2018-08-20T23:18:37.176Z,21.10
2018-08-20T23:23:42.039Z,20.90
2018-08-20T23:28:47.584Z,20.80
2018-08-20T23:33:52.467Z,20.90
2018-08-20T23:38:57.360Z,20.70
2018-08-20T23:44:02.198Z,20.60
2018-08-20T23:49:06.995Z,20.40
